עמוד ראשי
METAR-TAF:

METAR-TAF

שדות תעופה :

Faro, יוקון, קנדה

קו רוחב: 62-12N, קו אורך: 133-22W, גובה: 717מטר

תצפית מזג אוויר נוכחית

הדו"ח נערך לפני 1 שעות ו 9דקות, בשעה 19:00 UTC
רוח 3קשר עם כיוונים משתנים
טמפרטורת 22 צלסיוס
לחות 19%
לחץ 1012 hPa
ראות: 48.3קילומטר
מעט עננים בגובה 10000רגל
מעט עננים בגובה 18000רגל
מעט עננים בגובה 22000רגל

METAR: CZFA 171900Z VRB03KT 30SM FEW100 FEW180 FEW220 22/M03 A2988 RMK AC1AC1CI1 AC TR AC TR CI TR SLP128 DENSITY ALT 3800FT

זמן: 13:09 (20:09 UTC)

תחזית

הדו"ח נערך לפני 2 שעות ו 29דקות, בשעה 17:40 UTC
תחזית בתוקף מ 17 ב 18 UTC עד 18 ב 01 UTC
רוח 3קשר עם כיוונים משתנים
ראות: 10קילומטר
מעט עננים בגובה 18000רגל
עננים פזורים בגובה 22000רגל
יעשה מ
17 ב 18 UTC עד 17 ב 20 UTC
רוח 6קשר מכיוון מערב
מ 17 ב 2000UTC
רוח 6קשר מכיוון מערב
ראות: 10קילומטר
עננים פזורים בגובה 9000רגל

TAF: CZFA 171740Z 1718/1801 VRB03KT P6SM FEW180 SCT220 BECMG 1718/1720 27006KT FM172000 27006KT P6SM SCT090 RMK NXT FCST BY 181500Z

תצפיות ותחזיות מזג אוויר לגבי יותר מ- 4,000 שדות תעופה ברחבי העולם. דוחות METAR ו- TAF.

התחנות הזמינות מסומנות בנקודות צהובות ואדומות על גבי המפה.

העבר את העכבר לנקודה הצבעונית על מנת לראות את שם התחנה.

לאחר מכן, לחץ כדי לראות את תוכן ואת תחזיות מזג האוויר.

כדי לשנות את המפה: לחץ על הכפתורים הירוקים עם הפלוס השחור כדי להתקרב; על הכפתור הירוק עם המקף כדי להתרחק; או בחיצים הירוקים למפות סמוכות.


METAR-TAF: